sensor_id;sensor_type;location;lat;lon;timestamp;temperature;humidity
43920;DHT22;29578;51.946;5.874;2022-10-31T00:00:07;13.10;93.30
43920;DHT22;29578;51.946;5.874;2022-10-31T00:02:33;13.00;93.30
43920;DHT22;29578;51.946;5.874;2022-10-31T00:04:59;13.00;93.30
43920;DHT22;29578;51.946;5.874;2022-10-31T00:07:25;12.90;93.30
43920;DHT22;29578;51.946;5.874;2022-10-31T00:09:50;12.90;93.40
43920;DHT22;29578;51.946;5.874;2022-10-31T00:12:16;12.90;93.40
43920;DHT22;29578;51.946;5.874;2022-10-31T00:14:42;12.80;93.40
43920;DHT22;29578;51.946;5.874;2022-10-31T00:17:08;12.80;93.40
43920;DHT22;29578;51.946;5.874;2022-10-31T00:19:36;12.80;93.40
43920;DHT22;29578;51.946;5.874;2022-10-31T00:22:02;12.80;93.40
43920;DHT22;29578;51.946;5.874;2022-10-31T00:24:28;12.80;93.40
43920;DHT22;29578;51.946;5.874;2022-10-31T00:26:53;12.80;93.40
43920;DHT22;29578;51.946;5.874;2022-10-31T00:29:19;12.70;93.40
43920;DHT22;29578;51.946;5.874;2022-10-31T00:31:45;12.70;93.40
43920;DHT22;29578;51.946;5.874;2022-10-31T00:34:10;12.70;93.40
43920;DHT22;29578;51.946;5.874;2022-10-31T00:36:36;12.60;93.30
43920;DHT22;29578;51.946;5.874;2022-10-31T00:39:02;12.60;93.30
43920;DHT22;29578;51.946;5.874;2022-10-31T00:41:28;12.60;93.30
43920;DHT22;29578;51.946;5.874;2022-10-31T00:43:55;12.60;93.40
43920;DHT22;29578;51.946;5.874;2022-10-31T00:46:20;12.60;93.40
43920;DHT22;29578;51.946;5.874;2022-10-31T00:48:46;12.50;93.30
43920;DHT22;29578;51.946;5.874;2022-10-31T00:51:12;12.50;93.30
43920;DHT22;29578;51.946;5.874;2022-10-31T00:53:38;12.50;93.30
43920;DHT22;29578;51.946;5.874;2022-10-31T00:56:04;12.50;93.30
43920;DHT22;29578;51.946;5.874;2022-10-31T00:58:29;12.50;93.30
43920;DHT22;29578;51.946;5.874;2022-10-31T01:00:55;12.40;93.30
43920;DHT22;29578;51.946;5.874;2022-10-31T01:03:23;12.40;93.30
43920;DHT22;29578;51.946;5.874;2022-10-31T01:06:00;12.40;93.30
43920;DHT22;29578;51.946;5.874;2022-10-31T01:08:27;12.30;93.30
43920;DHT22;29578;51.946;5.874;2022-10-31T01:11:17;12.30;93.30
43920;DHT22;29578;51.946;5.874;2022-10-31T01:13:45;12.30;93.30
43920;DHT22;29578;51.946;5.874;2022-10-31T01:16:14;12.30;93.30
43920;DHT22;29578;51.946;5.874;2022-10-31T01:18:40;12.30;93.30
43920;DHT22;29578;51.946;5.874;2022-10-31T01:21:09;12.30;93.30
43920;DHT22;29578;51.946;5.874;2022-10-31T01:23:35;12.30;93.30
43920;DHT22;29578;51.946;5.874;2022-10-31T01:26:05;12.30;93.30
43920;DHT22;29578;51.946;5.874;2022-10-31T01:28:31;12.20;93.30
43920;DHT22;29578;51.946;5.874;2022-10-31T01:31:01;12.20;93.30
43920;DHT22;29578;51.946;5.874;2022-10-31T01:33:27;12.20;93.30
43920;DHT22;29578;51.946;5.874;2022-10-31T01:35:52;12.10;93.30
43920;DHT22;29578;51.946;5.874;2022-10-31T01:38:18;12.20;93.30
43920;DHT22;29578;51.946;5.874;2022-10-31T01:40:44;12.10;93.30
43920;DHT22;29578;51.946;5.874;2022-10-31T01:43:13;12.10;93.30
43920;DHT22;29578;51.946;5.874;2022-10-31T01:45:39;12.20;93.30
43920;DHT22;29578;51.946;5.874;2022-10-31T01:48:13;12.10;93.30
43920;DHT22;29578;51.946;5.874;2022-10-31T01:50:39;12.10;93.30
43920;DHT22;29578;51.946;5.874;2022-10-31T01:53:06;12.10;93.30
43920;DHT22;29578;51.946;5.874;2022-10-31T01:55:37;12.10;93.30
43920;DHT22;29578;51.946;5.874;2022-10-31T01:58:07;12.10;93.20
43920;DHT22;29578;51.946;5.874;2022-10-31T02:00:34;12.10;93.20
43920;DHT22;29578;51.946;5.874;2022-10-31T02:03:00;12.10;93.20
43920;DHT22;29578;51.946;5.874;2022-10-31T02:05:28;12.00;93.20
43920;DHT22;29578;51.946;5.874;2022-10-31T02:08:08;12.10;93.30
43920;DHT22;29578;51.946;5.874;2022-10-31T02:10:37;12.00;93.20
43920;DHT22;29578;51.946;5.874;2022-10-31T02:13:05;12.00;93.20
43920;DHT22;29578;51.946;5.874;2022-10-31T02:15:32;12.00;93.30
43920;DHT22;29578;51.946;5.874;2022-10-31T02:17:59;12.00;93.30
43920;DHT22;29578;51.946;5.874;2022-10-31T02:20:32;12.00;93.30
43920;DHT22;29578;51.946;5.874;2022-10-31T02:23:31;12.00;93.30
43920;DHT22;29578;51.946;5.874;2022-10-31T02:29:24;12.00;93.20
43920;DHT22;29578;51.946;5.874;2022-10-31T02:31:59;11.90;93.20
43920;DHT22;29578;51.946;5.874;2022-10-31T02:34:44;11.90;93.20
43920;DHT22;29578;51.946;5.874;2022-10-31T02:37:20;12.00;93.30
43920;DHT22;29578;51.946;5.874;2022-10-31T02:39:58;11.90;93.30
43920;DHT22;29578;51.946;5.874;2022-10-31T02:42:49;11.90;93.20
43920;DHT22;29578;51.946;5.874;2022-10-31T02:45:30;11.90;93.30
43920;DHT22;29578;51.946;5.874;2022-10-31T02:48:01;11.90;93.30
43920;DHT22;29578;51.946;5.874;2022-10-31T02:50:32;11.80;93.30
43920;DHT22;29578;51.946;5.874;2022-10-31T02:53:00;11.80;93.30
43920;DHT22;29578;51.946;5.874;2022-10-31T02:55:49;11.80;93.20
43920;DHT22;29578;51.946;5.874;2022-10-31T02:58:18;11.80;93.20
43920;DHT22;29578;51.946;5.874;2022-10-31T03:00:56;11.70;93.20
43920;DHT22;29578;51.946;5.874;2022-10-31T03:03:41;11.80;93.30
43920;DHT22;29578;51.946;5.874;2022-10-31T03:06:14;11.70;93.30
43920;DHT22;29578;51.946;5.874;2022-10-31T03:09:02;11.70;93.30
43920;DHT22;29578;51.946;5.874;2022-10-31T03:11:32;11.70;93.30
43920;DHT22;29578;51.946;5.874;2022-10-31T03:14:10;11.70;93.30
43920;DHT22;29578;51.946;5.874;2022-10-31T03:16:47;11.60;93.30
43920;DHT22;29578;51.946;5.874;2022-10-31T03:19:20;11.60;93.30
43920;DHT22;29578;51.946;5.874;2022-10-31T03:21:55;11.50;93.30
43920;DHT22;29578;51.946;5.874;2022-10-31T03:24:29;11.50;93.30
43920;DHT22;29578;51.946;5.874;2022-10-31T03:26:58;11.50;93.30
43920;DHT22;29578;51.946;5.874;2022-10-31T03:29:28;11.50;93.30
43920;DHT22;29578;51.946;5.874;2022-10-31T03:31:59;11.40;93.30
43920;DHT22;29578;51.946;5.874;2022-10-31T03:34:27;11.40;93.30
43920;DHT22;29578;51.946;5.874;2022-10-31T03:36:57;11.40;93.40
43920;DHT22;29578;51.946;5.874;2022-10-31T03:39:24;11.40;93.40
43920;DHT22;29578;51.946;5.874;2022-10-31T03:42:05;11.30;93.40
43920;DHT22;29578;51.946;5.874;2022-10-31T03:44:33;11.30;93.40
43920;DHT22;29578;51.946;5.874;2022-10-31T03:47:00;11.20;93.40
43920;DHT22;29578;51.946;5.874;2022-10-31T03:49:26;11.20;93.40
43920;DHT22;29578;51.946;5.874;2022-10-31T03:51:59;11.20;93.40
43920;DHT22;29578;51.946;5.874;2022-10-31T03:54:44;11.20;93.40
43920;DHT22;29578;51.946;5.874;2022-10-31T03:57:27;11.10;93.40
43920;DHT22;29578;51.946;5.874;2022-10-31T04:00:03;11.20;93.40
43920;DHT22;29578;51.946;5.874;2022-10-31T04:02:32;11.10;93.40
43920;DHT22;29578;51.946;5.874;2022-10-31T04:04:59;11.10;93.40
43920;DHT22;29578;51.946;5.874;2022-10-31T04:07:30;11.10;93.40
43920;DHT22;29578;51.946;5.874;2022-10-31T04:09:57;11.10;93.40
43920;DHT22;29578;51.946;5.874;2022-10-31T04:12:25;11.10;93.40
43920;DHT22;29578;51.946;5.874;2022-10-31T04:14:54;11.00;93.40
43920;DHT22;29578;51.946;5.874;2022-10-31T04:17:23;11.00;93.40
43920;DHT22;29578;51.946;5.874;2022-10-31T04:19:52;11.00;93.40
43920;DHT22;29578;51.946;5.874;2022-10-31T04:22:18;10.80;93.30
43920;DHT22;29578;51.946;5.874;2022-10-31T04:24:44;10.90;93.30
43920;DHT22;29578;51.946;5.874;2022-10-31T04:27:10;10.90;93.30
43920;DHT22;29578;51.946;5.874;2022-10-31T04:29:36;10.90;93.30
43920;DHT22;29578;51.946;5.874;2022-10-31T04:32:02;10.90;93.30
43920;DHT22;29578;51.946;5.874;2022-10-31T04:34:27;10.80;93.30
43920;DHT22;29578;51.946;5.874;2022-10-31T04:36:53;10.80;93.40
43920;DHT22;29578;51.946;5.874;2022-10-31T04:39:19;10.80;93.30
43920;DHT22;29578;51.946;5.874;2022-10-31T04:41:44;10.80;93.30
43920;DHT22;29578;51.946;5.874;2022-10-31T04:44:10;10.80;93.30
43920;DHT22;29578;51.946;5.874;2022-10-31T04:46:36;10.80;93.30
43920;DHT22;29578;51.946;5.874;2022-10-31T04:49:02;10.80;93.30
43920;DHT22;29578;51.946;5.874;2022-10-31T04:51:30;10.80;93.30
43920;DHT22;29578;51.946;5.874;2022-10-31T04:53:56;10.80;93.30
43920;DHT22;29578;51.946;5.874;2022-10-31T04:56:21;10.70;93.30
43920;DHT22;29578;51.946;5.874;2022-10-31T04:58:47;10.70;93.30
43920;DHT22;29578;51.946;5.874;2022-10-31T05:01:13;10.70;93.60
43920;DHT22;29578;51.946;5.874;2022-10-31T05:03:39;10.70;93.30
43920;DHT22;29578;51.946;5.874;2022-10-31T05:06:06;10.70;93.30
43920;DHT22;29578;51.946;5.874;2022-10-31T05:08:31;10.80;93.40
43920;DHT22;29578;51.946;5.874;2022-10-31T05:11:04;10.70;93.30
43920;DHT22;29578;51.946;5.874;2022-10-31T05:13:30;10.60;93.30
43920;DHT22;29578;51.946;5.874;2022-10-31T05:15:56;10.60;93.30
43920;DHT22;29578;51.946;5.874;2022-10-31T05:18:22;10.60;93.30
43920;DHT22;29578;51.946;5.874;2022-10-31T05:20:48;10.50;93.30
43920;DHT22;29578;51.946;5.874;2022-10-31T05:23:14;10.50;93.30
43920;DHT22;29578;51.946;5.874;2022-10-31T05:25:40;10.50;93.30
43920;DHT22;29578;51.946;5.874;2022-10-31T05:28:07;10.50;93.30
43920;DHT22;29578;51.946;5.874;2022-10-31T05:30:33;10.50;93.40
43920;DHT22;29578;51.946;5.874;2022-10-31T05:32:59;10.50;93.30
43920;DHT22;29578;51.946;5.874;2022-10-31T05:35:28;10.60;93.30
43920;DHT22;29578;51.946;5.874;2022-10-31T05:37:54;10.60;93.20
43920;DHT22;29578;51.946;5.874;2022-10-31T05:40:21;10.60;93.30
43920;DHT22;29578;51.946;5.874;2022-10-31T05:42:47;10.60;93.20
43920;DHT22;29578;51.946;5.874;2022-10-31T05:45:17;10.60;93.20
43920;DHT22;29578;51.946;5.874;2022-10-31T05:47:51;10.60;93.20
43920;DHT22;29578;51.946;5.874;2022-10-31T05:50:17;10.50;93.20
43920;DHT22;29578;51.946;5.874;2022-10-31T05:52:43;10.60;93.20
43920;DHT22;29578;51.946;5.874;2022-10-31T05:55:09;10.60;93.30
43920;DHT22;29578;51.946;5.874;2022-10-31T05:57:34;10.60;93.20
43920;DHT22;29578;51.946;5.874;2022-10-31T06:00:00;10.60;93.20
43920;DHT22;29578;51.946;5.874;2022-10-31T06:02:26;10.60;93.20
43920;DHT22;29578;51.946;5.874;2022-10-31T06:04:52;10.60;93.20
43920;DHT22;29578;51.946;5.874;2022-10-31T06:07:18;10.60;93.20
43920;DHT22;29578;51.946;5.874;2022-10-31T06:09:44;10.50;93.10
43920;DHT22;29578;51.946;5.874;2022-10-31T06:12:09;10.60;93.20
43920;DHT22;29578;51.946;5.874;2022-10-31T06:14:35;10.60;93.20
43920;DHT22;29578;51.946;5.874;2022-10-31T06:17:01;10.50;93.20
43920;DHT22;29578;51.946;5.874;2022-10-31T06:19:27;10.50;93.20
43920;DHT22;29578;51.946;5.874;2022-10-31T06:21:52;10.50;93.20
43920;DHT22;29578;51.946;5.874;2022-10-31T06:24:18;10.50;93.20
43920;DHT22;29578;51.946;5.874;2022-10-31T06:26:44;10.50;93.20
43920;DHT22;29578;51.946;5.874;2022-10-31T06:29:09;10.40;93.20
43920;DHT22;29578;51.946;5.874;2022-10-31T06:31:35;10.50;93.20
43920;DHT22;29578;51.946;5.874;2022-10-31T06:34:01;10.50;93.20
43920;DHT22;29578;51.946;5.874;2022-10-31T06:36:27;10.40;93.20
43920;DHT22;29578;51.946;5.874;2022-10-31T06:38:52;10.60;93.30
43920;DHT22;29578;51.946;5.874;2022-10-31T06:41:18;10.50;93.20
43920;DHT22;29578;51.946;5.874;2022-10-31T06:43:46;10.50;93.50
43920;DHT22;29578;51.946;5.874;2022-10-31T06:46:12;10.50;93.20
43920;DHT22;29578;51.946;5.874;2022-10-31T06:48:40;10.50;93.20
43920;DHT22;29578;51.946;5.874;2022-10-31T06:51:06;10.50;93.20
43920;DHT22;29578;51.946;5.874;2022-10-31T06:53:32;10.50;93.20
43920;DHT22;29578;51.946;5.874;2022-10-31T06:55:58;10.50;93.20
43920;DHT22;29578;51.946;5.874;2022-10-31T06:58:24;10.50;93.20
43920;DHT22;29578;51.946;5.874;2022-10-31T07:00:50;10.60;93.20
43920;DHT22;29578;51.946;5.874;2022-10-31T07:03:16;10.50;93.10
43920;DHT22;29578;51.946;5.874;2022-10-31T07:05:42;10.60;93.20
43920;DHT22;29578;51.946;5.874;2022-10-31T07:08:11;10.70;93.20
43920;DHT22;29578;51.946;5.874;2022-10-31T07:10:39;10.60;93.10
43920;DHT22;29578;51.946;5.874;2022-10-31T07:13:08;10.60;93.10
43920;DHT22;29578;51.946;5.874;2022-10-31T07:15:38;10.60;93.10
43920;DHT22;29578;51.946;5.874;2022-10-31T07:18:06;10.60;93.10
43920;DHT22;29578;51.946;5.874;2022-10-31T07:20:32;10.70;93.10
43920;DHT22;29578;51.946;5.874;2022-10-31T07:22:58;10.80;93.10
43920;DHT22;29578;51.946;5.874;2022-10-31T07:25:24;10.70;93.00
43920;DHT22;29578;51.946;5.874;2022-10-31T07:27:50;10.80;93.00
43920;DHT22;29578;51.946;5.874;2022-10-31T07:30:16;10.90;93.00
43920;DHT22;29578;51.946;5.874;2022-10-31T07:32:45;10.90;93.00
43920;DHT22;29578;51.946;5.874;2022-10-31T07:35:13;10.90;92.90
43920;DHT22;29578;51.946;5.874;2022-10-31T07:37:39;11.00;92.90
43920;DHT22;29578;51.946;5.874;2022-10-31T07:40:06;11.00;92.90
43920;DHT22;29578;51.946;5.874;2022-10-31T07:42:41;11.00;92.90
43920;DHT22;29578;51.946;5.874;2022-10-31T07:45:09;11.10;92.90
43920;DHT22;29578;51.946;5.874;2022-10-31T07:47:45;11.20;92.90
43920;DHT22;29578;51.946;5.874;2022-10-31T07:50:13;11.20;92.90
43920;DHT22;29578;51.946;5.874;2022-10-31T07:52:39;11.20;92.80
43920;DHT22;29578;51.946;5.874;2022-10-31T07:55:06;11.30;92.80
43920;DHT22;29578;51.946;5.874;2022-10-31T07:57:32;11.40;93.10
43920;DHT22;29578;51.946;5.874;2022-10-31T07:59:58;11.40;92.80
43920;DHT22;29578;51.946;5.874;2022-10-31T08:02:24;11.50;92.80
43920;DHT22;29578;51.946;5.874;2022-10-31T08:04:50;11.50;92.70
43920;DHT22;29578;51.946;5.874;2022-10-31T08:07:16;11.60;92.70
43920;DHT22;29578;51.946;5.874;2022-10-31T08:09:42;11.60;92.70
43920;DHT22;29578;51.946;5.874;2022-10-31T08:12:10;11.70;92.70
43920;DHT22;29578;51.946;5.874;2022-10-31T08:14:36;11.80;92.70
43920;DHT22;29578;51.946;5.874;2022-10-31T08:17:01;11.80;92.60
43920;DHT22;29578;51.946;5.874;2022-10-31T08:19:30;11.90;92.60
43920;DHT22;29578;51.946;5.874;2022-10-31T08:21:55;11.90;92.60
43920;DHT22;29578;51.946;5.874;2022-10-31T08:24:21;12.10;92.60
43920;DHT22;29578;51.946;5.874;2022-10-31T08:26:47;12.00;92.60
43920;DHT22;29578;51.946;5.874;2022-10-31T08:29:13;12.10;92.60
43920;DHT22;29578;51.946;5.874;2022-10-31T08:31:40;12.20;92.60
43920;DHT22;29578;51.946;5.874;2022-10-31T08:34:06;12.20;92.50
43920;DHT22;29578;51.946;5.874;2022-10-31T08:36:32;12.20;92.50
43920;DHT22;29578;51.946;5.874;2022-10-31T08:38:58;12.30;92.50
43920;DHT22;29578;51.946;5.874;2022-10-31T08:41:24;12.30;92.50
43920;DHT22;29578;51.946;5.874;2022-10-31T08:43:50;12.40;92.50
43920;DHT22;29578;51.946;5.874;2022-10-31T08:46:16;12.40;92.50
43920;DHT22;29578;51.946;5.874;2022-10-31T08:48:41;12.40;92.50
43920;DHT22;29578;51.946;5.874;2022-10-31T08:51:09;12.50;92.50
43920;DHT22;29578;51.946;5.874;2022-10-31T08:53:35;12.50;92.50
43920;DHT22;29578;51.946;5.874;2022-10-31T08:56:00;12.60;92.50
43920;DHT22;29578;51.946;5.874;2022-10-31T08:58:26;12.70;92.50
43920;DHT22;29578;51.946;5.874;2022-10-31T09:00:53;12.80;92.50
43920;DHT22;29578;51.946;5.874;2022-10-31T09:03:24;12.90;92.40
43920;DHT22;29578;51.946;5.874;2022-10-31T09:05:50;13.00;92.40
43920;DHT22;29578;51.946;5.874;2022-10-31T09:08:19;13.00;92.30
43920;DHT22;29578;51.946;5.874;2022-10-31T09:10:45;13.20;92.30
43920;DHT22;29578;51.946;5.874;2022-10-31T09:13:15;13.20;92.30
43920;DHT22;29578;51.946;5.874;2022-10-31T09:15:43;13.20;92.20
43920;DHT22;29578;51.946;5.874;2022-10-31T09:18:09;13.40;92.30
43920;DHT22;29578;51.946;5.874;2022-10-31T09:20:36;13.40;92.20
43920;DHT22;29578;51.946;5.874;2022-10-31T09:23:06;13.40;92.20
43920;DHT22;29578;51.946;5.874;2022-10-31T09:25:33;13.50;92.20
43920;DHT22;29578;51.946;5.874;2022-10-31T09:28:00;13.60;92.20
43920;DHT22;29578;51.946;5.874;2022-10-31T09:30:28;13.70;92.20
43920;DHT22;29578;51.946;5.874;2022-10-31T09:33:04;13.80;92.10
43920;DHT22;29578;51.946;5.874;2022-10-31T09:35:30;13.80;92.10
43920;DHT22;29578;51.946;5.874;2022-10-31T09:38:01;13.90;92.10
43920;DHT22;29578;51.946;5.874;2022-10-31T09:40:38;14.00;92.10
43920;DHT22;29578;51.946;5.874;2022-10-31T09:46:26;14.10;92.00
43920;DHT22;29578;51.946;5.874;2022-10-31T09:51:48;14.30;92.00
43920;DHT22;29578;51.946;5.874;2022-10-31T09:57:05;14.50;92.00
43920;DHT22;29578;51.946;5.874;2022-10-31T09:59:37;14.50;91.90
43920;DHT22;29578;51.946;5.874;2022-10-31T10:02:11;14.60;92.00
43920;DHT22;29578;51.946;5.874;2022-10-31T10:04:54;14.50;91.90
43920;DHT22;29578;51.946;5.874;2022-10-31T10:10:17;14.70;92.00
43920;DHT22;29578;51.946;5.874;2022-10-31T10:13:05;14.70;92.00
43920;DHT22;29578;51.946;5.874;2022-10-31T10:16:03;14.80;92.00
43920;DHT22;29578;51.946;5.874;2022-10-31T10:21:46;14.90;91.90
43920;DHT22;29578;51.946;5.874;2022-10-31T10:24:28;15.00;91.90
43920;DHT22;29578;51.946;5.874;2022-10-31T10:27:13;15.10;91.90
43920;DHT22;29578;51.946;5.874;2022-10-31T10:29:53;15.10;91.90
43920;DHT22;29578;51.946;5.874;2022-10-31T10:32:25;15.10;91.90
43920;DHT22;29578;51.946;5.874;2022-10-31T10:34:57;15.30;91.90
43920;DHT22;29578;51.946;5.874;2022-10-31T10:37:31;15.20;91.90
43920;DHT22;29578;51.946;5.874;2022-10-31T10:40:12;15.20;91.90
43920;DHT22;29578;51.946;5.874;2022-10-31T10:42:39;15.20;91.90
43920;DHT22;29578;51.946;5.874;2022-10-31T10:45:19;15.20;91.90
43920;DHT22;29578;51.946;5.874;2022-10-31T10:48:13;15.30;91.90
43920;DHT22;29578;51.946;5.874;2022-10-31T10:50:46;15.30;92.00
43920;DHT22;29578;51.946;5.874;2022-10-31T10:53:27;15.30;92.00
43920;DHT22;29578;51.946;5.874;2022-10-31T10:58:48;15.30;92.00
43920;DHT22;29578;51.946;5.874;2022-10-31T11:01:15;15.50;92.00
43920;DHT22;29578;51.946;5.874;2022-10-31T11:03:41;15.50;92.00
43920;DHT22;29578;51.946;5.874;2022-10-31T11:06:23;15.50;91.90
43920;DHT22;29578;51.946;5.874;2022-10-31T11:08:52;15.70;91.90
43920;DHT22;29578;51.946;5.874;2022-10-31T11:11:25;15.80;91.80
43920;DHT22;29578;51.946;5.874;2022-10-31T11:13:57;15.80;91.80
43920;DHT22;29578;51.946;5.874;2022-10-31T11:16:33;15.80;91.80
43920;DHT22;29578;51.946;5.874;2022-10-31T11:19:13;15.90;91.80
43920;DHT22;29578;51.946;5.874;2022-10-31T11:21:41;15.90;91.80
43920;DHT22;29578;51.946;5.874;2022-10-31T11:24:18;15.90;91.70
43920;DHT22;29578;51.946;5.874;2022-10-31T11:26:47;15.90;91.70
43920;DHT22;29578;51.946;5.874;2022-10-31T11:31:53;16.10;91.70
43920;DHT22;29578;51.946;5.874;2022-10-31T11:34:42;16.10;91.70
43920;DHT22;29578;51.946;5.874;2022-10-31T11:37:19;16.10;91.70
43920;DHT22;29578;51.946;5.874;2022-10-31T11:39:49;16.20;91.60
43920;DHT22;29578;51.946;5.874;2022-10-31T11:42:21;16.20;91.60
43920;DHT22;29578;51.946;5.874;2022-10-31T11:44:47;16.20;91.60
43920;DHT22;29578;51.946;5.874;2022-10-31T11:47:16;16.20;91.60
43920;DHT22;29578;51.946;5.874;2022-10-31T11:49:44;16.30;91.60
43920;DHT22;29578;51.946;5.874;2022-10-31T11:52:17;16.40;91.60
43920;DHT22;29578;51.946;5.874;2022-10-31T11:54:58;16.40;91.60
43920;DHT22;29578;51.946;5.874;2022-10-31T11:57:29;16.40;91.50
43920;DHT22;29578;51.946;5.874;2022-10-31T11:59:58;16.50;91.50
43920;DHT22;29578;51.946;5.874;2022-10-31T12:02:25;16.60;91.40
43920;DHT22;29578;51.946;5.874;2022-10-31T12:04:58;16.60;91.40
43920;DHT22;29578;51.946;5.874;2022-10-31T12:07:25;16.70;91.40
43920;DHT22;29578;51.946;5.874;2022-10-31T12:09:51;16.70;91.40
43920;DHT22;29578;51.946;5.874;2022-10-31T12:12:41;16.70;91.40
43920;DHT22;29578;51.946;5.874;2022-10-31T12:15:30;16.70;91.30
43920;DHT22;29578;51.946;5.874;2022-10-31T12:18:22;16.80;91.30
43920;DHT22;29578;51.946;5.874;2022-10-31T12:26:48;16.90;91.20
43920;DHT22;29578;51.946;5.874;2022-10-31T12:29:42;16.90;91.10
43920;DHT22;29578;51.946;5.874;2022-10-31T12:32:24;17.00;91.20
43920;DHT22;29578;51.946;5.874;2022-10-31T12:38:45;17.00;91.20
43920;DHT22;29578;51.946;5.874;2022-10-31T12:42:07;17.00;91.20
43920;DHT22;29578;51.946;5.874;2022-10-31T12:44:58;17.10;91.20
43920;DHT22;29578;51.946;5.874;2022-10-31T12:47:44;17.10;91.20
43920;DHT22;29578;51.946;5.874;2022-10-31T12:53:50;17.20;91.10
43920;DHT22;29578;51.946;5.874;2022-10-31T12:59:35;17.30;91.00
43920;DHT22;29578;51.946;5.874;2022-10-31T13:04:57;17.40;90.90
43920;DHT22;29578;51.946;5.874;2022-10-31T13:07:38;17.40;90.90
43920;DHT22;29578;51.946;5.874;2022-10-31T13:10:18;17.40;90.90
43920;DHT22;29578;51.946;5.874;2022-10-31T13:12:48;17.50;90.90
43920;DHT22;29578;51.946;5.874;2022-10-31T13:15:45;17.60;90.80
43920;DHT22;29578;51.946;5.874;2022-10-31T13:21:57;17.70;90.70
43920;DHT22;29578;51.946;5.874;2022-10-31T13:32:14;17.70;90.70
43920;DHT22;29578;51.946;5.874;2022-10-31T13:38:52;17.60;90.80
43920;DHT22;29578;51.946;5.874;2022-10-31T13:41:39;17.60;90.80
43920;DHT22;29578;51.946;5.874;2022-10-31T13:44:18;17.60;90.80
43920;DHT22;29578;51.946;5.874;2022-10-31T13:46:52;17.60;90.80
43920;DHT22;29578;51.946;5.874;2022-10-31T13:49:36;17.50;90.80
43920;DHT22;29578;51.946;5.874;2022-10-31T13:57:49;17.60;90.70
43920;DHT22;29578;51.946;5.874;2022-10-31T14:00:32;17.60;90.70
43920;DHT22;29578;51.946;5.874;2022-10-31T14:03:56;17.70;90.70
43920;DHT22;29578;51.946;5.874;2022-10-31T14:06:16;17.60;90.70
43920;DHT22;29578;51.946;5.874;2022-10-31T14:08:54;17.70;90.70
43920;DHT22;29578;51.946;5.874;2022-10-31T14:11:34;17.60;90.70
43920;DHT22;29578;51.946;5.874;2022-10-31T14:14:19;17.60;90.70
43920;DHT22;29578;51.946;5.874;2022-10-31T14:16:55;17.70;90.70
43920;DHT22;29578;51.946;5.874;2022-10-31T14:19:26;17.60;90.70
43920;DHT22;29578;51.946;5.874;2022-10-31T14:22:02;17.60;90.70
43920;DHT22;29578;51.946;5.874;2022-10-31T14:24:32;17.60;90.70
43920;DHT22;29578;51.946;5.874;2022-10-31T14:29:55;17.70;90.80
43920;DHT22;29578;51.946;5.874;2022-10-31T14:40:33;17.50;90.80
43920;DHT22;29578;51.946;5.874;2022-10-31T14:43:59;17.50;90.80
43920;DHT22;29578;51.946;5.874;2022-10-31T14:47:10;17.40;90.80
43920;DHT22;29578;51.946;5.874;2022-10-31T14:49:59;17.40;90.90
43920;DHT22;29578;51.946;5.874;2022-10-31T14:52:29;17.40;90.90
43920;DHT22;29578;51.946;5.874;2022-10-31T14:54:57;17.30;91.20
43920;DHT22;29578;51.946;5.874;2022-10-31T14:57:29;17.30;90.90
43920;DHT22;29578;51.946;5.874;2022-10-31T14:59:59;17.30;90.90
43920;DHT22;29578;51.946;5.874;2022-10-31T15:02:41;17.30;90.90
43920;DHT22;29578;51.946;5.874;2022-10-31T15:05:12;17.30;90.90
43920;DHT22;29578;51.946;5.874;2022-10-31T15:07:52;17.20;90.90
43920;DHT22;29578;51.946;5.874;2022-10-31T15:10:24;17.20;90.90
43920;DHT22;29578;51.946;5.874;2022-10-31T15:12:51;17.10;90.90
43920;DHT22;29578;51.946;5.874;2022-10-31T15:15:27;17.10;90.90
43920;DHT22;29578;51.946;5.874;2022-10-31T15:17:58;17.20;91.00
43920;DHT22;29578;51.946;5.874;2022-10-31T15:20:27;17.10;91.00
43920;DHT22;29578;51.946;5.874;2022-10-31T15:22:56;17.00;91.00
43920;DHT22;29578;51.946;5.874;2022-10-31T15:25:27;17.00;91.00
43920;DHT22;29578;51.946;5.874;2022-10-31T15:27:54;17.00;91.00
43920;DHT22;29578;51.946;5.874;2022-10-31T15:30:22;16.90;91.00
43920;DHT22;29578;51.946;5.874;2022-10-31T15:32:49;16.90;91.10
43920;DHT22;29578;51.946;5.874;2022-10-31T15:35:27;16.90;91.10
43920;DHT22;29578;51.946;5.874;2022-10-31T15:37:53;16.90;91.10
43920;DHT22;29578;51.946;5.874;2022-10-31T15:40:25;16.90;91.10
43920;DHT22;29578;51.946;5.874;2022-10-31T15:42:59;16.80;91.10
43920;DHT22;29578;51.946;5.874;2022-10-31T15:45:29;16.80;91.10
43920;DHT22;29578;51.946;5.874;2022-10-31T15:47:58;16.80;91.10
43920;DHT22;29578;51.946;5.874;2022-10-31T15:50:32;16.70;91.10
43920;DHT22;29578;51.946;5.874;2022-10-31T15:52:59;16.80;91.10
43920;DHT22;29578;51.946;5.874;2022-10-31T15:55:27;16.60;91.10
43920;DHT22;29578;51.946;5.874;2022-10-31T15:57:59;16.80;91.10
43920;DHT22;29578;51.946;5.874;2022-10-31T16:00:30;16.60;91.10
43920;DHT22;29578;51.946;5.874;2022-10-31T16:03:19;16.70;91.10
43920;DHT22;29578;51.946;5.874;2022-10-31T16:05:50;16.60;91.10
43920;DHT22;29578;51.946;5.874;2022-10-31T16:08:34;16.60;91.20
43920;DHT22;29578;51.946;5.874;2022-10-31T16:11:25;16.50;91.20
43920;DHT22;29578;51.946;5.874;2022-10-31T16:14:15;16.50;91.20
43920;DHT22;29578;51.946;5.874;2022-10-31T16:16:45;16.50;91.20
43920;DHT22;29578;51.946;5.874;2022-10-31T16:19:20;16.40;91.20
43920;DHT22;29578;51.946;5.874;2022-10-31T16:21:50;16.40;91.20
43920;DHT22;29578;51.946;5.874;2022-10-31T16:24:23;16.40;91.20
43920;DHT22;29578;51.946;5.874;2022-10-31T16:26:53;16.40;91.30
43920;DHT22;29578;51.946;5.874;2022-10-31T16:29:41;16.40;91.20
43920;DHT22;29578;51.946;5.874;2022-10-31T16:32:35;16.30;91.20
43920;DHT22;29578;51.946;5.874;2022-10-31T16:35:27;16.30;91.20
43920;DHT22;29578;51.946;5.874;2022-10-31T16:37:53;16.30;91.20
43920;DHT22;29578;51.946;5.874;2022-10-31T16:40:19;16.20;91.20
43920;DHT22;29578;51.946;5.874;2022-10-31T16:42:46;16.10;91.20
43920;DHT22;29578;51.946;5.874;2022-10-31T16:45:18;16.10;91.30
43920;DHT22;29578;51.946;5.874;2022-10-31T16:47:44;16.10;91.30
43920;DHT22;29578;51.946;5.874;2022-10-31T16:50:14;16.00;91.30
43920;DHT22;29578;51.946;5.874;2022-10-31T16:52:39;16.00;91.40
43920;DHT22;29578;51.946;5.874;2022-10-31T16:55:14;15.90;91.40
43920;DHT22;29578;51.946;5.874;2022-10-31T16:57:45;15.90;91.40
43920;DHT22;29578;51.946;5.874;2022-10-31T17:00:16;15.90;91.50
43920;DHT22;29578;51.946;5.874;2022-10-31T17:02:42;15.80;91.50
43920;DHT22;29578;51.946;5.874;2022-10-31T17:05:12;15.70;91.50
43920;DHT22;29578;51.946;5.874;2022-10-31T17:07:42;15.70;91.60
43920;DHT22;29578;51.946;5.874;2022-10-31T17:10:09;15.70;91.60